sensor_id;sensor_type;location;lat;lon;timestamp;P1;durP1;ratioP1;P2;durP2;ratioP2
77978;SDS011;67169;50.268;8.694;2023-03-21T00:00:54;4.32;;;2.75;;
77978;SDS011;67169;50.268;8.694;2023-03-21T00:03:21;9.85;;;3.08;;
77978;SDS011;67169;50.268;8.694;2023-03-21T00:05:48;6.60;;;2.45;;
77978;SDS011;67169;50.268;8.694;2023-03-21T00:08:17;4.43;;;2.38;;
77978;SDS011;67169;50.268;8.694;2023-03-21T00:10:45;4.60;;;2.67;;
77978;SDS011;67169;50.268;8.694;2023-03-21T00:13:13;6.78;;;3.35;;
77978;SDS011;67169;50.268;8.694;2023-03-21T00:15:41;5.88;;;2.83;;
77978;SDS011;67169;50.268;8.694;2023-03-21T00:18:15;6.85;;;2.38;;
77978;SDS011;67169;50.268;8.694;2023-03-21T00:20:42;7.22;;;2.90;;
77978;SDS011;67169;50.268;8.694;2023-03-21T00:23:11;6.15;;;3.22;;
77978;SDS011;67169;50.268;8.694;2023-03-21T00:25:38;5.00;;;2.72;;
77978;SDS011;67169;50.268;8.694;2023-03-21T00:28:06;6.68;;;3.33;;
77978;SDS011;67169;50.268;8.694;2023-03-21T00:30:32;6.00;;;2.97;;
77978;SDS011;67169;50.268;8.694;2023-03-21T00:32:59;7.07;;;3.20;;
77978;SDS011;67169;50.268;8.694;2023-03-21T00:35:25;5.13;;;3.20;;
77978;SDS011;67169;50.268;8.694;2023-03-21T00:37:52;8.00;;;2.97;;
77978;SDS011;67169;50.268;8.694;2023-03-21T00:40:18;7.72;;;3.50;;
77978;SDS011;67169;50.268;8.694;2023-03-21T00:42:45;5.97;;;2.67;;
77978;SDS011;67169;50.268;8.694;2023-03-21T00:45:13;5.22;;;3.05;;
77978;SDS011;67169;50.268;8.694;2023-03-21T00:47:40;7.15;;;3.55;;
77978;SDS011;67169;50.268;8.694;2023-03-21T00:50:07;5.35;;;2.97;;
77978;SDS011;67169;50.268;8.694;2023-03-21T00:52:35;6.03;;;3.28;;
77978;SDS011;67169;50.268;8.694;2023-03-21T00:55:02;8.05;;;3.47;;
77978;SDS011;67169;50.268;8.694;2023-03-21T00:57:30;6.18;;;3.30;;
77978;SDS011;67169;50.268;8.694;2023-03-21T00:59:56;5.15;;;3.10;;
77978;SDS011;67169;50.268;8.694;2023-03-21T01:02:24;4.72;;;2.67;;
77978;SDS011;67169;50.268;8.694;2023-03-21T01:04:51;5.32;;;3.03;;
77978;SDS011;67169;50.268;8.694;2023-03-21T01:07:18;6.07;;;2.75;;
77978;SDS011;67169;50.268;8.694;2023-03-21T01:09:44;4.43;;;2.97;;
77978;SDS011;67169;50.268;8.694;2023-03-21T01:12:11;5.18;;;3.30;;
77978;SDS011;67169;50.268;8.694;2023-03-21T01:14:37;6.65;;;3.42;;
77978;SDS011;67169;50.268;8.694;2023-03-21T01:17:04;8.25;;;2.97;;
77978;SDS011;67169;50.268;8.694;2023-03-21T01:19:32;5.30;;;3.00;;
77978;SDS011;67169;50.268;8.694;2023-03-21T01:21:59;7.65;;;3.72;;
77978;SDS011;67169;50.268;8.694;2023-03-21T01:24:26;6.03;;;3.08;;
77978;SDS011;67169;50.268;8.694;2023-03-21T01:26:53;12.02;;;3.33;;
77978;SDS011;67169;50.268;8.694;2023-03-21T01:29:19;5.25;;;3.33;;
77978;SDS011;67169;50.268;8.694;2023-03-21T01:31:46;6.35;;;3.10;;
77978;SDS011;67169;50.268;8.694;2023-03-21T01:34:12;6.65;;;2.72;;
77978;SDS011;67169;50.268;8.694;2023-03-21T01:36:41;5.95;;;2.75;;
77978;SDS011;67169;50.268;8.694;2023-03-21T01:39:07;4.68;;;2.78;;
77978;SDS011;67169;50.268;8.694;2023-03-21T01:41:34;5.95;;;3.72;;
77978;SDS011;67169;50.268;8.694;2023-03-21T01:44:02;7.13;;;2.95;;
77978;SDS011;67169;50.268;8.694;2023-03-21T01:46:38;8.52;;;3.10;;
77978;SDS011;67169;50.268;8.694;2023-03-21T01:49:07;6.00;;;3.40;;
77978;SDS011;67169;50.268;8.694;2023-03-21T01:51:38;4.90;;;3.38;;
77978;SDS011;67169;50.268;8.694;2023-03-21T01:54:11;7.35;;;4.05;;
77978;SDS011;67169;50.268;8.694;2023-03-21T01:56:43;7.22;;;3.90;;
77978;SDS011;67169;50.268;8.694;2023-03-21T01:59:12;6.63;;;3.38;;
77978;SDS011;67169;50.268;8.694;2023-03-21T02:01:45;7.72;;;3.40;;
77978;SDS011;67169;50.268;8.694;2023-03-21T02:04:13;6.45;;;3.60;;
77978;SDS011;67169;50.268;8.694;2023-03-21T02:06:49;7.20;;;3.58;;
77978;SDS011;67169;50.268;8.694;2023-03-21T02:09:21;9.30;;;3.90;;
77978;SDS011;67169;50.268;8.694;2023-03-21T02:11:51;6.10;;;3.80;;
77978;SDS011;67169;50.268;8.694;2023-03-21T02:16:47;8.63;;;3.35;;
77978;SDS011;67169;50.268;8.694;2023-03-21T02:19:31;7.78;;;3.42;;
77978;SDS011;67169;50.268;8.694;2023-03-21T02:22:23;6.03;;;3.53;;
77978;SDS011;67169;50.268;8.694;2023-03-21T02:25:14;7.47;;;3.55;;
77978;SDS011;67169;50.268;8.694;2023-03-21T02:27:57;8.80;;;3.90;;
77978;SDS011;67169;50.268;8.694;2023-03-21T02:30:34;6.10;;;3.45;;
77978;SDS011;67169;50.268;8.694;2023-03-21T02:36:24;7.40;;;3.83;;
77978;SDS011;67169;50.268;8.694;2023-03-21T02:38:58;5.05;;;3.70;;
77978;SDS011;67169;50.268;8.694;2023-03-21T02:41:34;8.70;;;3.75;;
77978;SDS011;67169;50.268;8.694;2023-03-21T02:44:07;6.60;;;3.58;;
77978;SDS011;67169;50.268;8.694;2023-03-21T02:46:42;7.60;;;3.92;;
77978;SDS011;67169;50.268;8.694;2023-03-21T02:49:11;6.70;;;3.70;;
77978;SDS011;67169;50.268;8.694;2023-03-21T02:51:44;5.70;;;3.22;;
77978;SDS011;67169;50.268;8.694;2023-03-21T02:54:16;7.95;;;3.63;;
77978;SDS011;67169;50.268;8.694;2023-03-21T02:56:45;5.72;;;3.47;;
77978;SDS011;67169;50.268;8.694;2023-03-21T02:59:14;6.93;;;3.63;;
77978;SDS011;67169;50.268;8.694;2023-03-21T03:01:41;9.15;;;3.95;;
77978;SDS011;67169;50.268;8.694;2023-03-21T03:04:18;6.57;;;3.75;;
77978;SDS011;67169;50.268;8.694;2023-03-21T03:06:48;7.70;;;4.68;;
77978;SDS011;67169;50.268;8.694;2023-03-21T03:09:33;9.20;;;3.92;;
77978;SDS011;67169;50.268;8.694;2023-03-21T03:12:11;6.00;;;3.90;;
77978;SDS011;67169;50.268;8.694;2023-03-21T03:14:48;8.60;;;4.95;;
77978;SDS011;67169;50.268;8.694;2023-03-21T03:17:24;7.00;;;4.07;;
77978;SDS011;67169;50.268;8.694;2023-03-21T03:20:08;9.57;;;4.05;;
77978;SDS011;67169;50.268;8.694;2023-03-21T03:22:45;7.47;;;4.07;;
77978;SDS011;67169;50.268;8.694;2023-03-21T03:25:19;9.60;;;3.75;;
77978;SDS011;67169;50.268;8.694;2023-03-21T03:27:51;7.88;;;4.30;;
77978;SDS011;67169;50.268;8.694;2023-03-21T03:30:21;8.00;;;3.55;;
77978;SDS011;67169;50.268;8.694;2023-03-21T03:32:52;7.07;;;3.88;;
77978;SDS011;67169;50.268;8.694;2023-03-21T03:35:21;6.03;;;4.15;;
77978;SDS011;67169;50.268;8.694;2023-03-21T03:37:50;6.10;;;3.88;;
77978;SDS011;67169;50.268;8.694;2023-03-21T03:40:23;7.63;;;4.15;;
77978;SDS011;67169;50.268;8.694;2023-03-21T03:42:53;7.15;;;4.22;;
77978;SDS011;67169;50.268;8.694;2023-03-21T03:45:25;7.50;;;4.57;;
77978;SDS011;67169;50.268;8.694;2023-03-21T03:47:57;6.47;;;3.58;;
77978;SDS011;67169;50.268;8.694;2023-03-21T03:50:30;6.07;;;3.80;;
77978;SDS011;67169;50.268;8.694;2023-03-21T03:53:02;5.68;;;3.80;;
77978;SDS011;67169;50.268;8.694;2023-03-21T03:55:34;8.60;;;3.95;;
77978;SDS011;67169;50.268;8.694;2023-03-21T03:58:01;7.53;;;4.20;;
77978;SDS011;67169;50.268;8.694;2023-03-21T04:00:30;7.40;;;4.70;;
77978;SDS011;67169;50.268;8.694;2023-03-21T04:02:58;6.82;;;4.45;;
77978;SDS011;67169;50.268;8.694;2023-03-21T04:05:24;5.88;;;4.18;;
77978;SDS011;67169;50.268;8.694;2023-03-21T04:07:51;7.10;;;4.05;;
77978;SDS011;67169;50.268;8.694;2023-03-21T04:10:18;7.50;;;3.78;;
77978;SDS011;67169;50.268;8.694;2023-03-21T04:15:14;5.53;;;3.50;;
77978;SDS011;67169;50.268;8.694;2023-03-21T04:17:41;7.47;;;3.45;;
77978;SDS011;67169;50.268;8.694;2023-03-21T04:20:09;4.28;;;3.40;;
77978;SDS011;67169;50.268;8.694;2023-03-21T04:22:36;8.13;;;3.65;;
77978;SDS011;67169;50.268;8.694;2023-03-21T04:25:03;8.27;;;4.00;;
77978;SDS011;67169;50.268;8.694;2023-03-21T04:27:30;7.20;;;3.75;;
77978;SDS011;67169;50.268;8.694;2023-03-21T04:29:58;6.30;;;3.83;;
77978;SDS011;67169;50.268;8.694;2023-03-21T04:32:25;5.93;;;4.03;;
77978;SDS011;67169;50.268;8.694;2023-03-21T04:34:51;6.85;;;3.45;;
77978;SDS011;67169;50.268;8.694;2023-03-21T04:37:20;4.90;;;3.55;;
77978;SDS011;67169;50.268;8.694;2023-03-21T04:39:47;8.85;;;3.78;;
77978;SDS011;67169;50.268;8.694;2023-03-21T04:42:15;8.20;;;3.50;;
77978;SDS011;67169;50.268;8.694;2023-03-21T04:44:43;6.50;;;3.90;;
77978;SDS011;67169;50.268;8.694;2023-03-21T04:47:11;7.03;;;3.88;;
77978;SDS011;67169;50.268;8.694;2023-03-21T04:49:39;8.23;;;4.53;;
77978;SDS011;67169;50.268;8.694;2023-03-21T04:52:06;7.90;;;4.40;;
77978;SDS011;67169;50.268;8.694;2023-03-21T04:54:33;6.97;;;4.45;;
77978;SDS011;67169;50.268;8.694;2023-03-21T04:57:00;9.23;;;4.68;;
77978;SDS011;67169;50.268;8.694;2023-03-21T04:59:28;7.40;;;4.03;;
77978;SDS011;67169;50.268;8.694;2023-03-21T05:01:55;6.70;;;4.00;;
77978;SDS011;67169;50.268;8.694;2023-03-21T05:04:24;7.72;;;4.40;;
77978;SDS011;67169;50.268;8.694;2023-03-21T05:06:51;9.38;;;4.72;;
77978;SDS011;67169;50.268;8.694;2023-03-21T05:09:20;6.65;;;4.10;;
77978;SDS011;67169;50.268;8.694;2023-03-21T05:11:47;8.68;;;4.75;;
77978;SDS011;67169;50.268;8.694;2023-03-21T05:14:15;9.25;;;4.70;;
77978;SDS011;67169;50.268;8.694;2023-03-21T05:16:44;9.95;;;5.32;;
77978;SDS011;67169;50.268;8.694;2023-03-21T05:19:17;9.20;;;4.32;;
77978;SDS011;67169;50.268;8.694;2023-03-21T05:21:46;7.63;;;4.88;;
77978;SDS011;67169;50.268;8.694;2023-03-21T05:24:13;8.20;;;5.07;;
77978;SDS011;67169;50.268;8.694;2023-03-21T05:26:42;7.35;;;5.18;;
77978;SDS011;67169;50.268;8.694;2023-03-21T05:29:14;8.70;;;4.95;;
77978;SDS011;67169;50.268;8.694;2023-03-21T05:31:42;10.18;;;5.68;;
77978;SDS011;67169;50.268;8.694;2023-03-21T05:34:08;7.72;;;5.07;;
77978;SDS011;67169;50.268;8.694;2023-03-21T05:36:35;11.02;;;5.60;;
77978;SDS011;67169;50.268;8.694;2023-03-21T05:39:04;8.40;;;5.43;;
77978;SDS011;67169;50.268;8.694;2023-03-21T05:41:31;10.77;;;5.05;;
77978;SDS011;67169;50.268;8.694;2023-03-21T05:43:58;11.13;;;5.30;;
77978;SDS011;67169;50.268;8.694;2023-03-21T05:46:24;13.05;;;5.75;;
77978;SDS011;67169;50.268;8.694;2023-03-21T05:48:51;8.73;;;4.85;;
77978;SDS011;67169;50.268;8.694;2023-03-21T05:51:17;7.70;;;5.15;;
77978;SDS011;67169;50.268;8.694;2023-03-21T05:53:44;8.65;;;4.55;;
77978;SDS011;67169;50.268;8.694;2023-03-21T05:56:12;12.40;;;5.30;;
77978;SDS011;67169;50.268;8.694;2023-03-21T05:58:38;10.77;;;5.45;;
77978;SDS011;67169;50.268;8.694;2023-03-21T06:01:05;9.02;;;4.32;;
77978;SDS011;67169;50.268;8.694;2023-03-21T06:03:32;9.35;;;5.20;;
77978;SDS011;67169;50.268;8.694;2023-03-21T06:05:59;9.00;;;4.22;;
77978;SDS011;67169;50.268;8.694;2023-03-21T06:08:27;9.43;;;5.68;;
77978;SDS011;67169;50.268;8.694;2023-03-21T06:10:54;9.65;;;4.88;;
77978;SDS011;67169;50.268;8.694;2023-03-21T06:13:21;11.43;;;4.95;;
77978;SDS011;67169;50.268;8.694;2023-03-21T06:15:48;6.68;;;4.30;;
77978;SDS011;67169;50.268;8.694;2023-03-21T06:18:14;10.48;;;5.18;;
77978;SDS011;67169;50.268;8.694;2023-03-21T06:20:41;9.02;;;4.95;;
77978;SDS011;67169;50.268;8.694;2023-03-21T06:23:07;8.80;;;4.80;;
77978;SDS011;67169;50.268;8.694;2023-03-21T06:25:34;12.10;;;4.97;;
77978;SDS011;67169;50.268;8.694;2023-03-21T06:28:00;7.55;;;4.90;;
77978;SDS011;67169;50.268;8.694;2023-03-21T06:30:28;6.88;;;5.03;;
77978;SDS011;67169;50.268;8.694;2023-03-21T06:32:55;7.57;;;4.63;;
77978;SDS011;67169;50.268;8.694;2023-03-21T06:35:21;9.38;;;5.22;;
77978;SDS011;67169;50.268;8.694;2023-03-21T06:37:48;10.27;;;4.30;;
77978;SDS011;67169;50.268;8.694;2023-03-21T06:40:15;8.43;;;5.03;;
77978;SDS011;67169;50.268;8.694;2023-03-21T06:42:42;13.30;;;5.32;;
77978;SDS011;67169;50.268;8.694;2023-03-21T06:45:08;7.85;;;4.97;;
77978;SDS011;67169;50.268;8.694;2023-03-21T06:47:36;8.38;;;4.65;;
77978;SDS011;67169;50.268;8.694;2023-03-21T06:50:03;10.93;;;5.30;;
77978;SDS011;67169;50.268;8.694;2023-03-21T06:54:57;7.97;;;4.70;;
77978;SDS011;67169;50.268;8.694;2023-03-21T06:57:24;7.93;;;5.03;;
77978;SDS011;67169;50.268;8.694;2023-03-21T06:59:50;7.75;;;4.93;;
77978;SDS011;67169;50.268;8.694;2023-03-21T07:02:17;9.38;;;5.35;;
77978;SDS011;67169;50.268;8.694;2023-03-21T07:04:44;7.57;;;4.55;;
77978;SDS011;67169;50.268;8.694;2023-03-21T07:07:11;6.20;;;4.57;;
77978;SDS011;67169;50.268;8.694;2023-03-21T07:09:38;7.50;;;4.03;;
77978;SDS011;67169;50.268;8.694;2023-03-21T07:12:05;7.15;;;4.53;;
77978;SDS011;67169;50.268;8.694;2023-03-21T07:14:32;8.55;;;4.47;;
77978;SDS011;67169;50.268;8.694;2023-03-21T07:16:58;8.48;;;3.88;;
77978;SDS011;67169;50.268;8.694;2023-03-21T07:19:25;9.57;;;4.72;;
77978;SDS011;67169;50.268;8.694;2023-03-21T07:21:53;7.88;;;4.70;;
77978;SDS011;67169;50.268;8.694;2023-03-21T07:24:20;10.35;;;4.70;;
77978;SDS011;67169;50.268;8.694;2023-03-21T07:26:46;7.32;;;4.22;;
77978;SDS011;67169;50.268;8.694;2023-03-21T07:29:13;7.35;;;4.18;;
77978;SDS011;67169;50.268;8.694;2023-03-21T07:31:41;7.47;;;4.55;;
77978;SDS011;67169;50.268;8.694;2023-03-21T07:34:08;8.75;;;4.65;;
77978;SDS011;67169;50.268;8.694;2023-03-21T07:36:34;8.02;;;4.45;;
77978;SDS011;67169;50.268;8.694;2023-03-21T07:39:02;8.65;;;5.00;;
77978;SDS011;67169;50.268;8.694;2023-03-21T07:41:29;13.60;;;4.72;;
77978;SDS011;67169;50.268;8.694;2023-03-21T07:43:55;7.80;;;4.03;;
77978;SDS011;67169;50.268;8.694;2023-03-21T07:46:22;7.28;;;4.32;;
77978;SDS011;67169;50.268;8.694;2023-03-21T07:48:49;6.57;;;4.63;;
77978;SDS011;67169;50.268;8.694;2023-03-21T07:51:15;9.25;;;4.35;;
77978;SDS011;67169;50.268;8.694;2023-03-21T07:53:42;8.15;;;4.32;;
77978;SDS011;67169;50.268;8.694;2023-03-21T07:56:13;7.78;;;3.92;;
77978;SDS011;67169;50.268;8.694;2023-03-21T07:58:40;8.88;;;4.32;;
77978;SDS011;67169;50.268;8.694;2023-03-21T08:01:07;7.30;;;3.88;;
77978;SDS011;67169;50.268;8.694;2023-03-21T08:03:33;7.63;;;3.67;;
77978;SDS011;67169;50.268;8.694;2023-03-21T08:06:00;9.77;;;4.07;;
77978;SDS011;67169;50.268;8.694;2023-03-21T08:08:26;9.13;;;3.70;;
77978;SDS011;67169;50.268;8.694;2023-03-21T08:10:53;7.80;;;3.80;;
77978;SDS011;67169;50.268;8.694;2023-03-21T08:13:26;7.60;;;4.25;;
77978;SDS011;67169;50.268;8.694;2023-03-21T08:15:53;6.68;;;4.63;;
77978;SDS011;67169;50.268;8.694;2023-03-21T08:18:19;6.43;;;4.43;;
77978;SDS011;67169;50.268;8.694;2023-03-21T08:20:49;8.57;;;4.28;;
77978;SDS011;67169;50.268;8.694;2023-03-21T08:23:16;7.75;;;4.05;;
77978;SDS011;67169;50.268;8.694;2023-03-21T08:25:43;6.93;;;4.05;;
77978;SDS011;67169;50.268;8.694;2023-03-21T08:28:10;9.32;;;4.25;;
77978;SDS011;67169;50.268;8.694;2023-03-21T08:30:38;6.68;;;4.30;;
77978;SDS011;67169;50.268;8.694;2023-03-21T08:33:05;8.35;;;4.50;;
77978;SDS011;67169;50.268;8.694;2023-03-21T08:35:31;7.85;;;4.00;;
77978;SDS011;67169;50.268;8.694;2023-03-21T08:37:58;7.47;;;4.00;;
77978;SDS011;67169;50.268;8.694;2023-03-21T08:40:25;7.43;;;4.28;;
77978;SDS011;67169;50.268;8.694;2023-03-21T08:42:51;8.75;;;4.45;;
77978;SDS011;67169;50.268;8.694;2023-03-21T08:45:18;8.48;;;4.60;;
77978;SDS011;67169;50.268;8.694;2023-03-21T08:47:46;9.88;;;4.15;;
77978;SDS011;67169;50.268;8.694;2023-03-21T08:50:14;6.45;;;3.67;;
77978;SDS011;67169;50.268;8.694;2023-03-21T08:52:42;6.75;;;2.95;;
77978;SDS011;67169;50.268;8.694;2023-03-21T08:55:09;13.05;;;3.95;;
77978;SDS011;67169;50.268;8.694;2023-03-21T08:57:36;5.38;;;3.10;;
77978;SDS011;67169;50.268;8.694;2023-03-21T09:00:03;6.90;;;2.97;;
77978;SDS011;67169;50.268;8.694;2023-03-21T09:02:36;7.70;;;2.90;;
77978;SDS011;67169;50.268;8.694;2023-03-21T09:05:08;9.57;;;3.78;;
77978;SDS011;67169;50.268;8.694;2023-03-21T09:07:36;5.38;;;2.70;;
77978;SDS011;67169;50.268;8.694;2023-03-21T09:10:04;6.30;;;3.60;;
77978;SDS011;67169;50.268;8.694;2023-03-21T09:12:31;6.82;;;3.22;;
77978;SDS011;67169;50.268;8.694;2023-03-21T09:14:58;5.88;;;3.08;;
77978;SDS011;67169;50.268;8.694;2023-03-21T09:17:26;6.53;;;3.03;;
77978;SDS011;67169;50.268;8.694;2023-03-21T09:19:53;7.88;;;4.00;;
77978;SDS011;67169;50.268;8.694;2023-03-21T09:22:22;7.07;;;3.95;;
77978;SDS011;67169;50.268;8.694;2023-03-21T09:24:49;7.15;;;3.92;;
77978;SDS011;67169;50.268;8.694;2023-03-21T09:27:16;8.35;;;3.60;;
77978;SDS011;67169;50.268;8.694;2023-03-21T09:29:46;9.85;;;3.80;;
77978;SDS011;67169;50.268;8.694;2023-03-21T09:32:13;6.88;;;3.60;;
77978;SDS011;67169;50.268;8.694;2023-03-21T09:34:42;6.85;;;3.10;;
77978;SDS011;67169;50.268;8.694;2023-03-21T09:37:09;7.90;;;3.60;;
77978;SDS011;67169;50.268;8.694;2023-03-21T09:39:38;8.25;;;3.60;;
77978;SDS011;67169;50.268;8.694;2023-03-21T09:42:09;8.75;;;3.90;;
77978;SDS011;67169;50.268;8.694;2023-03-21T09:44:52;6.47;;;3.45;;
77978;SDS011;67169;50.268;8.694;2023-03-21T09:47:30;9.27;;;3.83;;
77978;SDS011;67169;50.268;8.694;2023-03-21T09:50:14;8.10;;;4.53;;
77978;SDS011;67169;50.268;8.694;2023-03-21T09:52:45;7.32;;;3.70;;
77978;SDS011;67169;50.268;8.694;2023-03-21T09:55:16;10.95;;;4.10;;
77978;SDS011;67169;50.268;8.694;2023-03-21T09:57:46;7.30;;;3.67;;
77978;SDS011;67169;50.268;8.694;2023-03-21T10:00:17;5.97;;;4.07;;
77978;SDS011;67169;50.268;8.694;2023-03-21T10:02:49;8.40;;;4.38;;
77978;SDS011;67169;50.268;8.694;2023-03-21T10:05:18;12.25;;;4.00;;
77978;SDS011;67169;50.268;8.694;2023-03-21T10:07:49;8.93;;;4.35;;
77978;SDS011;67169;50.268;8.694;2023-03-21T10:10:21;6.72;;;4.15;;
77978;SDS011;67169;50.268;8.694;2023-03-21T10:12:53;8.32;;;3.80;;
77978;SDS011;67169;50.268;8.694;2023-03-21T10:15:22;11.00;;;3.65;;
77978;SDS011;67169;50.268;8.694;2023-03-21T10:17:51;8.05;;;5.03;;
77978;SDS011;67169;50.268;8.694;2023-03-21T10:20:22;8.55;;;4.43;;
77978;SDS011;67169;50.268;8.694;2023-03-21T10:22:51;9.95;;;4.38;;
77978;SDS011;67169;50.268;8.694;2023-03-21T10:25:23;4.85;;;3.85;;
77978;SDS011;67169;50.268;8.694;2023-03-21T10:27:55;10.65;;;3.78;;
77978;SDS011;67169;50.268;8.694;2023-03-21T10:30:27;10.13;;;4.38;;
77978;SDS011;67169;50.268;8.694;2023-03-21T10:32:59;9.65;;;3.85;;
77978;SDS011;67169;50.268;8.694;2023-03-21T10:35:29;10.48;;;3.88;;
77978;SDS011;67169;50.268;8.694;2023-03-21T10:37:57;6.53;;;4.13;;
77978;SDS011;67169;50.268;8.694;2023-03-21T10:40:26;8.63;;;3.65;;
77978;SDS011;67169;50.268;8.694;2023-03-21T10:42:53;6.10;;;3.40;;
77978;SDS011;67169;50.268;8.694;2023-03-21T10:45:21;6.68;;;3.55;;
77978;SDS011;67169;50.268;8.694;2023-03-21T10:47:49;4.97;;;3.78;;
77978;SDS011;67169;50.268;8.694;2023-03-21T10:50:17;5.07;;;3.30;;
77978;SDS011;67169;50.268;8.694;2023-03-21T10:52:50;6.60;;;3.20;;
77978;SDS011;67169;50.268;8.694;2023-03-21T10:55:25;6.30;;;3.65;;
77978;SDS011;67169;50.268;8.694;2023-03-21T10:57:55;8.13;;;3.67;;
77978;SDS011;67169;50.268;8.694;2023-03-21T11:00:25;8.68;;;3.65;;
77978;SDS011;67169;50.268;8.694;2023-03-21T11:02:53;7.25;;;3.33;;
77978;SDS011;67169;50.268;8.694;2023-03-21T11:05:21;9.95;;;4.28;;
77978;SDS011;67169;50.268;8.694;2023-03-21T11:07:55;10.43;;;4.05;;
77978;SDS011;67169;50.268;8.694;2023-03-21T11:10:29;8.60;;;3.92;;
77978;SDS011;67169;50.268;8.694;2023-03-21T11:13:03;8.18;;;4.72;;
77978;SDS011;67169;50.268;8.694;2023-03-21T11:15:37;7.50;;;4.07;;
77978;SDS011;67169;50.268;8.694;2023-03-21T11:18:14;9.65;;;4.53;;
77978;SDS011;67169;50.268;8.694;2023-03-21T11:20:47;6.25;;;3.97;;
77978;SDS011;67169;50.268;8.694;2023-03-21T11:23:15;6.32;;;3.60;;
77978;SDS011;67169;50.268;8.694;2023-03-21T11:25:44;9.27;;;4.55;;
77978;SDS011;67169;50.268;8.694;2023-03-21T11:28:14;12.02;;;4.65;;
77978;SDS011;67169;50.268;8.694;2023-03-21T11:30:50;13.00;;;4.70;;
77978;SDS011;67169;50.268;8.694;2023-03-21T11:33:19;11.85;;;5.03;;
77978;SDS011;67169;50.268;8.694;2023-03-21T11:38:23;10.68;;;4.35;;
77978;SDS011;67169;50.268;8.694;2023-03-21T11:40:55;8.00;;;4.82;;
77978;SDS011;67169;50.268;8.694;2023-03-21T11:43:27;8.88;;;4.35;;
77978;SDS011;67169;50.268;8.694;2023-03-21T11:45:56;7.07;;;4.55;;
77978;SDS011;67169;50.268;8.694;2023-03-21T11:48:24;10.35;;;4.70;;
77978;SDS011;67169;50.268;8.694;2023-03-21T11:50:51;9.35;;;5.25;;
77978;SDS011;67169;50.268;8.694;2023-03-21T11:53:29;10.55;;;4.72;;
77978;SDS011;67169;50.268;8.694;2023-03-21T11:56:17;6.32;;;4.40;;
77978;SDS011;67169;50.268;8.694;2023-03-21T11:58:52;10.55;;;5.65;;
77978;SDS011;67169;50.268;8.694;2023-03-21T12:01:30;11.05;;;5.55;;
77978;SDS011;67169;50.268;8.694;2023-03-21T12:04:12;15.77;;;5.95;;
77978;SDS011;67169;50.268;8.694;2023-03-21T12:06:57;12.05;;;6.38;;
77978;SDS011;67169;50.268;8.694;2023-03-21T12:09:35;8.00;;;5.00;;
77978;SDS011;67169;50.268;8.694;2023-03-21T12:12:15;10.73;;;4.72;;
77978;SDS011;67169;50.268;8.694;2023-03-21T12:14:55;9.70;;;3.70;;
77978;SDS011;67169;50.268;8.694;2023-03-21T12:17:29;6.55;;;3.42;;
77978;SDS011;67169;50.268;8.694;2023-03-21T12:22:54;10.63;;;4.75;;
77978;SDS011;67169;50.268;8.694;2023-03-21T12:25:34;7.72;;;3.80;;
77978;SDS011;67169;50.268;8.694;2023-03-21T12:28:13;10.30;;;4.03;;
77978;SDS011;67169;50.268;8.694;2023-03-21T12:30:53;7.50;;;3.78;;
77978;SDS011;67169;50.268;8.694;2023-03-21T12:33:33;7.32;;;4.10;;
77978;SDS011;67169;50.268;8.694;2023-03-21T12:36:10;10.65;;;4.13;;
77978;SDS011;67169;50.268;8.694;2023-03-21T12:38:50;7.43;;;4.13;;
77978;SDS011;67169;50.268;8.694;2023-03-21T12:41:23;6.90;;;3.13;;
77978;SDS011;67169;50.268;8.694;2023-03-21T12:43:54;4.15;;;3.63;;
77978;SDS011;67169;50.268;8.694;2023-03-21T12:46:25;6.75;;;4.10;;
77978;SDS011;67169;50.268;8.694;2023-03-21T12:48:55;6.97;;;3.55;;
77978;SDS011;67169;50.268;8.694;2023-03-21T12:51:26;8.90;;;3.70;;
77978;SDS011;67169;50.268;8.694;2023-03-21T12:53:58;10.82;;;3.90;;
77978;SDS011;67169;50.268;8.694;2023-03-21T12:56:31;5.55;;;2.90;;
77978;SDS011;67169;50.268;8.694;2023-03-21T12:59:07;4.82;;;3.30;;
77978;SDS011;67169;50.268;8.694;2023-03-21T13:01:43;8.68;;;3.88;;
77978;SDS011;67169;50.268;8.694;2023-03-21T13:04:29;6.75;;;3.75;;
77978;SDS011;67169;50.268;8.694;2023-03-21T13:07:00;7.43;;;3.47;;
77978;SDS011;67169;50.268;8.694;2023-03-21T13:09:32;5.82;;;3.22;;
77978;SDS011;67169;50.268;8.694;2023-03-21T13:12:02;8.55;;;3.17;;
77978;SDS011;67169;50.268;8.694;2023-03-21T13:14:41;6.82;;;3.80;;
77978;SDS011;67169;50.268;8.694;2023-03-21T13:17:15;9.50;;;3.55;;
77978;SDS011;67169;50.268;8.694;2023-03-21T13:19:49;6.30;;;3.85;;
77978;SDS011;67169;50.268;8.694;2023-03-21T13:22:21;7.15;;;3.92;;
77978;SDS011;67169;50.268;8.694;2023-03-21T13:24:56;9.27;;;4.28;;
77978;SDS011;67169;50.268;8.694;2023-03-21T13:27:25;6.45;;;4.25;;
77978;SDS011;67169;50.268;8.694;2023-03-21T13:29:58;8.10;;;4.18;;
77978;SDS011;67169;50.268;8.694;2023-03-21T13:32:27;10.05;;;4.78;;
77978;SDS011;67169;50.268;8.694;2023-03-21T13:34:56;10.07;;;5.03;;
77978;SDS011;67169;50.268;8.694;2023-03-21T13:37:25;12.45;;;5.45;;
77978;SDS011;67169;50.268;8.694;2023-03-21T13:39:58;8.88;;;4.65;;
77978;SDS011;67169;50.268;8.694;2023-03-21T13:42:28;11.23;;;5.40;;
77978;SDS011;67169;50.268;8.694;2023-03-21T13:44:59;15.52;;;6.40;;
77978;SDS011;67169;50.268;8.694;2023-03-21T13:47:30;13.68;;;6.40;;
77978;SDS011;67169;50.268;8.694;2023-03-21T13:50:12;11.23;;;6.10;;
77978;SDS011;67169;50.268;8.694;2023-03-21T13:55:46;12.00;;;6.00;;
77978;SDS011;67169;50.268;8.694;2023-03-21T13:58:30;13.20;;;6.53;;
77978;SDS011;67169;50.268;8.694;2023-03-21T14:01:08;9.52;;;6.03;;
77978;SDS011;67169;50.268;8.694;2023-03-21T14:03:42;12.15;;;6.65;;
77978;SDS011;67169;50.268;8.694;2023-03-21T14:06:10;19.13;;;7.60;;
77978;SDS011;67169;50.268;8.694;2023-03-21T14:08:37;17.38;;;8.60;;
77978;SDS011;67169;50.268;8.694;2023-03-21T14:11:07;16.73;;;8.32;;
77978;SDS011;67169;50.268;8.694;2023-03-21T14:13:40;18.48;;;8.50;;
77978;SDS011;67169;50.268;8.694;2023-03-21T14:16:10;15.60;;;8.40;;
77978;SDS011;67169;50.268;8.694;2023-03-21T14:18:41;15.40;;;7.70;;
77978;SDS011;67169;50.268;8.694;2023-03-21T14:21:14;15.90;;;8.38;;
77978;SDS011;67169;50.268;8.694;2023-03-21T14:23:42;14.95;;;8.07;;
77978;SDS011;67169;50.268;8.694;2023-03-21T14:26:09;15.43;;;8.77;;
77978;SDS011;67169;50.268;8.694;2023-03-21T14:31:04;14.23;;;7.70;;
77978;SDS011;67169;50.268;8.694;2023-03-21T14:33:34;12.45;;;7.70;;
77978;SDS011;67169;50.268;8.694;2023-03-21T14:36:03;14.25;;;7.90;;
77978;SDS011;67169;50.268;8.694;2023-03-21T14:38:33;13.27;;;7.35;;
77978;SDS011;67169;50.268;8.694;2023-03-21T14:41:02;12.02;;;6.55;;
77978;SDS011;67169;50.268;8.694;2023-03-21T14:43:29;14.63;;;6.75;;
77978;SDS011;67169;50.268;8.694;2023-03-21T14:45:58;9.77;;;5.85;;
77978;SDS011;67169;50.268;8.694;2023-03-21T14:48:27;13.25;;;7.18;;
77978;SDS011;67169;50.268;8.694;2023-03-21T14:50:59;13.38;;;6.60;;
77978;SDS011;67169;50.268;8.694;2023-03-21T14:53:29;16.27;;;7.75;;
77978;SDS011;67169;50.268;8.694;2023-03-21T14:55:58;13.45;;;7.55;;
77978;SDS011;67169;50.268;8.694;2023-03-21T14:58:26;23.95;;;13.75;;
77978;SDS011;67169;50.268;8.694;2023-03-21T15:00:54;12.60;;;7.43;;
77978;SDS011;67169;50.268;8.694;2023-03-21T15:03:23;14.13;;;7.13;;
77978;SDS011;67169;50.268;8.694;2023-03-21T15:05:51;14.55;;;8.48;;
77978;SDS011;67169;50.268;8.694;2023-03-21T15:08:20;17.27;;;7.25;;
77978;SDS011;67169;50.268;8.694;2023-03-21T15:10:54;11.57;;;6.45;;
77978;SDS011;67169;50.268;8.694;2023-03-21T15:13:24;11.52;;;6.70;;
77978;SDS011;67169;50.268;8.694;2023-03-21T15:15:53;9.98;;;6.03;;
77978;SDS011;67169;50.268;8.694;2023-03-21T15:18:21;10.90;;;6.05;;
77978;SDS011;67169;50.268;8.694;2023-03-21T15:20:51;14.73;;;10.57;;
77978;SDS011;67169;50.268;8.694;2023-03-21T15:23:24;11.50;;;6.80;;